createdAt,value
2018-04-10T00:01:58.267Z,6.80
2018-04-10T00:04:26.641Z,6.30
2018-04-10T00:06:54.983Z,6.23
2018-04-10T00:09:22.603Z,6.40
2018-04-10T00:11:50.223Z,5.63
2018-04-10T00:14:17.806Z,5.93
2018-04-10T00:16:46.181Z,5.63
2018-04-10T00:19:14.564Z,6.30
2018-04-10T00:21:42.931Z,6.30
2018-04-10T00:24:11.239Z,5.90
2018-04-10T00:26:38.924Z,5.63
2018-04-10T00:29:06.523Z,6.00
2018-04-10T00:31:34.143Z,6.40
2018-04-10T00:34:01.717Z,5.57
2018-04-10T00:36:29.353Z,5.73
2018-04-10T00:39:04.930Z,5.43
2018-04-10T00:41:32.559Z,4.93
2018-04-10T00:44:00.120Z,5.70
2018-04-10T00:46:27.725Z,4.67
2018-04-10T00:48:55.363Z,5.17
2018-04-10T00:51:22.982Z,5.67
2018-04-10T00:53:52.308Z,5.30
2018-04-10T00:56:19.949Z,5.00
2018-04-10T00:58:47.582Z,4.90
2018-04-10T01:01:15.157Z,6.20
2018-04-10T01:03:42.799Z,5.97
2018-04-10T01:06:11.928Z,6.40
2018-04-10T01:08:39.558Z,7.73
2018-04-10T01:11:07.950Z,7.80
2018-04-10T01:13:36.345Z,6.83
2018-04-10T01:16:03.971Z,7.93
2018-04-10T01:18:31.611Z,6.40
2018-04-10T01:20:59.186Z,6.50
2018-04-10T01:23:26.741Z,6.33
2018-04-10T01:25:54.363Z,6.43
2018-04-10T01:28:21.958Z,6.20
2018-04-10T01:30:49.610Z,5.93
2018-04-10T01:33:17.196Z,5.40
2018-04-10T01:35:46.292Z,6.17
2018-04-10T01:38:13.934Z,5.70
2018-04-10T01:40:41.513Z,5.33
2018-04-10T01:43:09.111Z,7.43
2018-04-10T01:45:36.722Z,6.10
2018-04-10T01:48:04.323Z,6.13
2018-04-10T01:50:32.837Z,6.67
2018-04-10T01:53:00.373Z,5.40
2018-04-10T01:55:28.003Z,6.13
2018-04-10T01:57:56.371Z,6.03
2018-04-10T02:00:23.981Z,6.13
2018-04-10T02:02:51.525Z,5.80
2018-04-10T02:05:19.137Z,5.60
2018-04-10T02:07:59.358Z,6.30
2018-04-10T02:10:41.857Z,6.93
2018-04-10T02:13:09.435Z,6.80
2018-04-10T02:15:37.033Z,7.37
2018-04-10T02:18:04.611Z,6.50
2018-04-10T02:20:32.216Z,6.70
2018-04-10T02:22:59.826Z,7.63
2018-04-10T02:25:27.388Z,6.70
2018-04-10T02:27:55.034Z,6.93
2018-04-10T02:30:22.617Z,5.40
2018-04-10T02:32:50.992Z,6.23
2018-04-10T02:35:18.570Z,6.87
2018-04-10T02:37:46.942Z,7.83
2018-04-10T02:40:15.264Z,9.10
2018-04-10T02:42:42.882Z,8.53
2018-04-10T02:45:11.282Z,6.83
2018-04-10T02:47:38.879Z,6.63
2018-04-10T02:50:06.493Z,6.07
2018-04-10T02:52:34.107Z,6.57
2018-04-10T02:55:01.691Z,6.63
2018-04-10T02:57:29.275Z,6.53
2018-04-10T02:59:57.707Z,6.67
2018-04-10T03:02:25.293Z,7.30
2018-04-10T03:04:52.887Z,6.83
2018-04-10T03:07:20.501Z,7.83
2018-04-10T03:09:48.880Z,7.60
2018-04-10T03:12:16.494Z,7.00
2018-04-10T03:14:44.130Z,6.07
2018-04-10T03:17:11.707Z,8.03
2018-04-10T03:19:39.275Z,6.50
2018-04-10T03:22:06.897Z,6.73
2018-04-10T03:24:34.494Z,6.20
2018-04-10T03:27:02.081Z,6.33
2018-04-10T03:29:29.679Z,6.20
2018-04-10T03:31:57.283Z,6.70
2018-04-10T03:34:24.873Z,8.67
2018-04-10T03:36:52.507Z,6.87
2018-04-10T03:39:20.137Z,6.33
2018-04-10T03:41:48.507Z,7.40
2018-04-10T03:44:16.847Z,6.83
2018-04-10T03:46:44.457Z,7.40
2018-04-10T03:49:12.081Z,6.37
2018-04-10T03:51:39.711Z,7.50
2018-04-10T03:54:07.304Z,7.47
2018-04-10T03:56:34.927Z,7.63
2018-04-10T03:59:02.579Z,7.00
2018-04-10T04:01:30.191Z,7.20
2018-04-10T04:03:57.813Z,6.73
2018-04-10T04:06:25.457Z,7.80
2018-04-10T04:08:53.110Z,7.70
2018-04-10T04:11:20.711Z,7.60
2018-04-10T04:13:48.346Z,8.10
2018-04-10T04:16:27.808Z,7.37
2018-04-10T04:19:07.329Z,8.03
2018-04-10T04:21:46.873Z,8.13
2018-04-10T04:24:14.536Z,8.53
2018-04-10T04:26:42.133Z,8.47
2018-04-10T04:29:10.509Z,8.23
2018-04-10T04:31:38.097Z,8.87
2018-04-10T04:34:06.461Z,9.87
2018-04-10T04:36:34.445Z,10.10
2018-04-10T04:39:02.981Z,9.63
2018-04-10T04:41:30.677Z,7.90
2018-04-10T04:43:58.249Z,7.93
2018-04-10T04:46:26.626Z,7.60
2018-04-10T04:48:54.985Z,6.90
2018-04-10T04:51:22.538Z,7.47
2018-04-10T04:53:50.129Z,7.70
2018-04-10T04:56:18.445Z,7.50
2018-04-10T04:58:45.988Z,7.60
2018-04-10T05:01:13.611Z,7.97
2018-04-10T05:03:41.202Z,8.43
2018-04-10T05:06:12.327Z,8.27
2018-04-10T05:08:41.731Z,8.37
2018-04-10T05:11:10.077Z,7.80
2018-04-10T05:13:37.697Z,7.27
2018-04-10T05:16:05.279Z,7.57
2018-04-10T05:18:32.911Z,6.83
2018-04-10T05:21:00.509Z,7.70
2018-04-10T05:23:28.141Z,6.90
2018-04-10T05:25:55.751Z,7.37
2018-04-10T05:28:23.337Z,7.13
2018-04-10T05:30:51.713Z,7.23
2018-04-10T05:33:20.057Z,6.90
2018-04-10T05:35:47.700Z,6.80
2018-04-10T05:38:16.321Z,7.00
2018-04-10T05:40:43.913Z,6.67
2018-04-10T05:43:11.552Z,7.43
2018-04-10T05:45:39.943Z,6.60
2018-04-10T05:48:07.571Z,6.50
2018-04-10T05:50:35.169Z,7.47
2018-04-10T05:53:03.601Z,7.20
2018-04-10T05:55:31.209Z,7.57
2018-04-10T05:57:58.819Z,7.30
2018-04-10T06:00:26.433Z,6.60
2018-04-10T06:02:54.064Z,6.70
2018-04-10T06:05:33.937Z,8.83
2018-04-10T06:08:02.455Z,8.60
2018-04-10T06:10:30.074Z,7.63
2018-04-10T06:12:58.477Z,8.43
2018-04-10T06:15:26.036Z,8.50
2018-04-10T06:17:53.825Z,8.97
2018-04-10T06:20:21.749Z,7.97
2018-04-10T06:22:50.300Z,7.93
2018-04-10T06:25:17.907Z,9.00
2018-04-10T06:27:45.478Z,9.00
2018-04-10T06:30:13.036Z,8.77
2018-04-10T06:32:40.644Z,9.83
2018-04-10T06:35:08.311Z,9.10
2018-04-10T06:37:35.941Z,10.20
2018-04-10T06:40:03.536Z,8.93
2018-04-10T06:42:31.185Z,9.93
2018-04-10T06:44:58.850Z,10.40
2018-04-10T06:47:26.429Z,9.40
2018-04-10T06:49:54.823Z,11.43
2018-04-10T06:52:22.452Z,11.03
2018-04-10T06:54:54.027Z,10.10
2018-04-10T06:57:22.372Z,11.00
2018-04-10T06:59:51.004Z,10.60
2018-04-10T07:02:19.166Z,11.70
2018-04-10T07:04:48.223Z,11.07
2018-04-10T07:07:15.913Z,12.23
2018-04-10T07:09:46.061Z,12.43
2018-04-10T07:12:25.465Z,13.40
2018-04-10T07:14:54.860Z,13.20
2018-04-10T07:17:22.664Z,14.90
2018-04-10T07:19:51.193Z,15.47
2018-04-10T07:22:18.775Z,16.43
2018-04-10T07:24:46.403Z,15.00
2018-04-10T07:27:17.376Z,15.83
2018-04-10T07:29:45.808Z,16.17
2018-04-10T07:32:13.451Z,15.07
2018-04-10T07:34:41.957Z,14.50
2018-04-10T07:37:09.789Z,15.03
2018-04-10T07:39:37.454Z,14.93
2018-04-10T07:42:05.122Z,15.17
2018-04-10T07:44:33.607Z,14.30
2018-04-10T07:47:01.239Z,15.80
2018-04-10T07:49:28.856Z,15.50
2018-04-10T07:51:58.682Z,14.47
2018-04-10T07:54:28.358Z,14.57
2018-04-10T07:56:59.270Z,15.07
2018-04-10T07:59:27.456Z,15.33
2018-04-10T08:01:55.078Z,15.10
2018-04-10T08:04:22.764Z,16.20
2018-04-10T08:06:51.155Z,16.90
2018-04-10T08:09:18.784Z,15.47
2018-04-10T08:11:46.343Z,16.37
2018-04-10T08:14:13.967Z,15.67
2018-04-10T08:16:41.631Z,16.43
2018-04-10T08:19:09.289Z,15.53
2018-04-10T08:21:37.359Z,16.23
2018-04-10T08:24:04.957Z,16.83
2018-04-10T08:26:32.772Z,15.67
2018-04-10T08:29:00.526Z,17.23
2018-04-10T08:31:28.371Z,16.17
2018-04-10T08:33:56.863Z,17.07
2018-04-10T08:36:24.710Z,17.60
2018-04-10T08:38:53.343Z,19.53
2018-04-10T08:41:21.109Z,18.10
2018-04-10T08:43:48.815Z,18.67
2018-04-10T08:46:17.259Z,20.03
2018-04-10T08:48:44.911Z,19.43
2018-04-10T08:51:12.586Z,20.07
2018-04-10T08:53:40.406Z,19.93
2018-04-10T08:56:08.955Z,21.60
2018-04-10T08:58:37.468Z,17.30
2018-04-10T09:01:05.285Z,19.90
2018-04-10T09:03:33.109Z,18.97
2018-04-10T09:06:00.807Z,21.27
2018-04-10T09:08:28.518Z,20.87
2018-04-10T09:10:56.240Z,20.90
2018-04-10T09:13:23.878Z,18.40
2018-04-10T09:15:51.591Z,17.73
2018-04-10T09:18:19.311Z,19.37
2018-04-10T09:20:47.085Z,16.73
2018-04-10T09:23:15.144Z,16.03
2018-04-10T09:25:42.871Z,19.23
2018-04-10T09:28:11.340Z,20.77
2018-04-10T09:30:39.781Z,17.50
2018-04-10T09:33:07.623Z,20.33
2018-04-10T09:35:35.309Z,18.80
2018-04-10T09:38:03.235Z,19.90
2018-04-10T09:40:31.711Z,18.47
2018-04-10T09:43:00.172Z,18.10
2018-04-10T09:45:28.571Z,15.00
2018-04-10T09:47:56.971Z,17.10
2018-04-10T09:50:24.653Z,15.40
2018-04-10T09:52:52.277Z,14.87
2018-04-10T09:55:20.801Z,14.57
2018-04-10T09:57:48.442Z,16.10
2018-04-10T10:00:16.408Z,13.50
2018-04-10T10:02:44.035Z,12.90
2018-04-10T10:05:13.477Z,15.00
2018-04-10T10:07:41.961Z,14.07
2018-04-10T10:10:09.547Z,13.17
2018-04-10T10:12:37.498Z,12.07
2018-04-10T10:15:05.452Z,12.70
2018-04-10T10:17:37.392Z,12.13
2018-04-10T10:20:05.250Z,11.60
2018-04-10T10:22:32.902Z,11.90
2018-04-10T10:25:00.510Z,12.73
2018-04-10T10:27:28.396Z,13.87
2018-04-10T10:29:56.841Z,13.77
2018-04-10T10:32:24.425Z,12.57
2018-04-10T10:34:54.715Z,13.50
2018-04-10T10:37:22.497Z,12.63
2018-04-10T10:39:50.101Z,12.23
2018-04-10T10:42:17.819Z,10.67
2018-04-10T10:44:45.531Z,11.30
2018-04-10T10:47:13.381Z,11.67
2018-04-10T10:49:44.827Z,8.93
2018-04-10T10:52:13.013Z,10.33
2018-04-10T10:54:40.653Z,10.70
2018-04-10T10:57:08.290Z,10.90
2018-04-10T10:59:35.934Z,9.67
2018-04-10T11:02:04.292Z,10.10
2018-04-10T11:04:31.896Z,10.13
2018-04-10T11:07:00.840Z,9.40
2018-04-10T11:09:29.573Z,9.23
2018-04-10T11:11:57.210Z,8.80
2018-04-10T11:14:24.769Z,7.70
2018-04-10T11:16:52.394Z,8.50
2018-04-10T11:19:23.105Z,7.53
2018-04-10T11:21:51.997Z,8.47
2018-04-10T11:24:19.617Z,8.77
2018-04-10T11:26:51.402Z,7.50
2018-04-10T11:29:19.000Z,7.97
2018-04-10T11:34:34.151Z,6.80
2018-04-10T11:37:01.856Z,5.90
2018-04-10T11:39:30.476Z,6.03
2018-04-10T11:41:58.132Z,6.37
2018-04-10T11:46:59.752Z,5.87
2018-04-10T11:49:27.336Z,5.93
2018-04-10T11:51:55.682Z,7.70
2018-04-10T11:54:23.365Z,11.80
2018-04-10T11:56:50.979Z,11.93
2018-04-10T11:59:18.585Z,10.50
2018-04-10T12:01:46.174Z,10.83
2018-04-10T12:04:14.572Z,10.73
2018-04-10T12:06:42.298Z,10.80
2018-04-10T12:09:09.995Z,10.67
2018-04-10T12:11:37.823Z,9.77
2018-04-10T12:14:05.997Z,11.83
2018-04-10T12:16:34.201Z,12.67
2018-04-10T12:19:01.837Z,10.97
2018-04-10T12:21:29.475Z,10.13
2018-04-10T12:23:57.083Z,10.03
2018-04-10T12:26:28.547Z,12.23
2018-04-10T12:29:00.013Z,12.73
2018-04-10T12:31:27.635Z,18.63
2018-04-10T12:33:55.281Z,11.23
2018-04-10T12:36:22.921Z,10.63
2018-04-10T12:38:50.508Z,10.57
2018-04-10T12:41:18.148Z,11.00
2018-04-10T12:43:45.861Z,11.45
2018-04-10T12:46:13.491Z,10.45
2018-04-10T12:48:41.921Z,10.52
2018-04-10T12:51:09.565Z,11.23
2018-04-10T12:53:39.145Z,11.02
2018-04-10T12:56:06.741Z,11.05
2018-04-10T12:58:34.344Z,10.70
2018-04-10T13:01:02.639Z,11.82
2018-04-10T13:03:33.215Z,10.43
2018-04-10T13:06:00.742Z,11.10
2018-04-10T13:08:28.340Z,9.75
2018-04-10T13:10:56.074Z,9.82
2018-04-10T13:13:25.872Z,11.60
2018-04-10T13:15:53.418Z,10.75
2018-04-10T13:18:20.962Z,10.80
2018-04-10T13:20:48.488Z,10.98
2018-04-10T13:23:16.040Z,11.35
2018-04-10T13:25:43.778Z,10.70
2018-04-10T13:28:11.340Z,12.30
2018-04-10T13:30:39.034Z,12.25
2018-04-10T13:33:11.041Z,13.55
2018-04-10T13:35:39.032Z,15.05
2018-04-10T13:38:06.586Z,12.93
2018-04-10T13:40:34.116Z,14.27
2018-04-10T13:43:01.636Z,13.73
2018-04-10T13:45:29.186Z,13.17
2018-04-10T13:47:57.479Z,14.13
2018-04-10T13:50:25.005Z,13.73
2018-04-10T13:53:00.499Z,15.07
2018-04-10T13:55:43.109Z,14.33
2018-04-10T13:58:24.023Z,15.20
2018-04-10T14:00:53.095Z,16.00
2018-04-10T14:03:20.733Z,15.53
2018-04-10T14:05:48.314Z,14.02
2018-04-10T14:08:15.859Z,14.47
2018-04-10T14:10:43.390Z,15.00
2018-04-10T14:13:11.704Z,15.17
2018-04-10T14:15:39.284Z,16.13
2018-04-10T14:18:07.015Z,16.20
2018-04-10T14:20:34.717Z,16.77
2018-04-10T14:23:03.051Z,16.77
2018-04-10T14:25:30.571Z,18.23
2018-04-10T14:27:58.874Z,15.13
2018-04-10T14:30:27.921Z,16.23
2018-04-10T14:32:55.430Z,15.87
2018-04-10T14:35:23.733Z,15.87
2018-04-10T14:37:51.266Z,16.03
2018-04-10T14:40:18.886Z,16.30
2018-04-10T14:42:47.928Z,16.27
2018-04-10T14:45:15.560Z,14.90
2018-04-10T14:47:43.086Z,15.37
2018-04-10T14:50:10.662Z,15.93
2018-04-10T14:52:38.170Z,14.80
2018-04-10T14:55:05.696Z,14.17
2018-04-10T14:57:33.242Z,15.23
2018-04-10T15:00:02.274Z,14.03
2018-04-10T15:02:29.828Z,12.63
2018-04-10T15:04:58.119Z,13.40
2018-04-10T15:07:25.700Z,14.73
2018-04-10T15:09:53.211Z,15.47
2018-04-10T15:12:21.544Z,15.07
2018-04-10T15:14:49.054Z,13.43
2018-04-10T15:17:17.339Z,13.90
2018-04-10T15:19:45.829Z,13.90
2018-04-10T15:22:13.613Z,14.00
2018-04-10T15:24:53.279Z,13.10
2018-04-10T15:27:20.834Z,13.73
2018-04-10T15:29:48.355Z,13.87
2018-04-10T15:32:15.864Z,13.13
2018-04-10T15:34:43.407Z,13.23
2018-04-10T15:37:10.937Z,13.37
2018-04-10T15:39:38.524Z,12.30
2018-04-10T15:42:06.133Z,14.70
2018-04-10T15:44:34.145Z,13.63
2018-04-10T15:47:02.332Z,12.93
2018-04-10T15:49:30.748Z,12.60
2018-04-10T15:51:59.092Z,12.37
2018-04-10T15:54:26.712Z,12.17
2018-04-10T15:56:54.342Z,10.77
2018-04-10T15:59:22.715Z,11.00
2018-04-10T16:01:50.312Z,11.70
2018-04-10T16:04:17.944Z,11.90
2018-04-10T16:06:46.345Z,12.60
2018-04-10T16:09:13.911Z,12.10
2018-04-10T16:11:41.513Z,12.07
2018-04-10T16:14:09.082Z,13.77
2018-04-10T16:16:57.557Z,11.68
2018-04-10T16:19:39.290Z,14.77
2018-04-10T16:22:06.898Z,13.03
2018-04-10T16:24:34.493Z,12.23
2018-04-10T16:27:02.174Z,12.47
2018-04-10T16:29:29.863Z,13.07
2018-04-10T16:31:57.475Z,12.57
2018-04-10T16:34:48.893Z,12.60
2018-04-10T16:37:16.537Z,11.10
2018-04-10T16:39:44.179Z,12.20
2018-04-10T16:42:15.303Z,11.40
2018-04-10T16:44:42.919Z,13.07
2018-04-10T16:47:11.304Z,12.97
2018-04-10T16:49:39.691Z,11.47
2018-04-10T16:52:07.494Z,12.20
2018-04-10T16:54:35.097Z,12.43
2018-04-10T16:57:08.822Z,13.00
2018-04-10T16:59:36.561Z,14.27
2018-04-10T17:02:04.270Z,12.83
2018-04-10T17:04:31.969Z,12.80
2018-04-10T17:06:59.591Z,14.37
2018-04-10T17:09:28.117Z,13.97
2018-04-10T17:11:55.873Z,14.83
2018-04-10T17:14:23.646Z,13.67
2018-04-10T17:16:51.274Z,13.80
2018-04-10T17:19:40.221Z,15.07
2018-04-10T17:22:07.855Z,14.40
2018-04-10T17:24:35.487Z,12.73
2018-04-10T17:27:03.159Z,14.52
2018-04-10T17:29:30.767Z,12.30
2018-04-10T17:31:58.770Z,10.73
2018-04-10T17:34:26.404Z,12.53
2018-04-10T17:36:54.086Z,7.93
2018-04-10T17:39:21.888Z,6.30
2018-04-10T17:41:49.479Z,7.40
2018-04-10T17:44:17.099Z,7.17
2018-04-10T17:46:45.461Z,6.35
2018-04-10T17:49:16.783Z,6.67
2018-04-10T17:51:49.386Z,8.10
2018-04-10T17:54:17.609Z,8.77
2018-04-10T17:56:48.341Z,10.17
2018-04-10T17:59:15.972Z,9.33
2018-04-10T18:01:43.959Z,9.23
2018-04-10T18:04:11.532Z,8.40
2018-04-10T18:06:39.143Z,7.90
2018-04-10T18:09:06.791Z,7.50
2018-04-10T18:11:34.475Z,7.23
2018-04-10T18:14:02.233Z,7.97
2018-04-10T18:16:29.931Z,8.40
2018-04-10T18:18:58.616Z,10.77
2018-04-10T18:21:26.313Z,9.13
2018-04-10T18:23:53.885Z,9.77
2018-04-10T18:26:21.492Z,10.10
2018-04-10T18:28:49.110Z,8.93
2018-04-10T18:31:16.778Z,9.13
2018-04-10T18:33:44.403Z,10.17
2018-04-10T18:36:13.184Z,10.87
2018-04-10T18:38:41.088Z,9.40
2018-04-10T18:41:08.714Z,7.83
2018-04-10T18:43:36.383Z,6.73
2018-04-10T18:46:04.714Z,5.87
2018-04-10T18:48:32.340Z,5.77
2018-04-10T18:50:59.976Z,5.93
2018-04-10T18:53:27.592Z,4.70
2018-04-10T18:55:55.148Z,5.23
2018-04-10T18:58:22.781Z,5.90
2018-04-10T19:00:51.852Z,6.30
2018-04-10T19:03:20.274Z,6.57
2018-04-10T19:05:48.158Z,7.40
2018-04-10T19:08:16.572Z,7.00
2018-04-10T19:10:44.248Z,6.83
2018-04-10T19:13:11.816Z,7.50
2018-04-10T19:15:39.628Z,6.40
2018-04-10T19:18:08.021Z,5.53
2018-04-10T19:20:35.630Z,6.40
2018-04-10T19:23:03.240Z,5.00
2018-04-10T19:25:30.842Z,5.07
2018-04-10T19:27:58.409Z,4.80
2018-04-10T19:30:26.014Z,5.37
2018-04-10T19:32:53.644Z,6.03
2018-04-10T19:35:21.270Z,10.07
2018-04-10T19:37:48.850Z,8.43
2018-04-10T19:40:16.488Z,9.97
2018-04-10T19:42:44.110Z,8.40
2018-04-10T19:45:12.655Z,7.20
2018-04-10T19:47:40.379Z,5.33
2018-04-10T19:50:07.977Z,5.00
2018-04-10T19:52:36.093Z,4.80
2018-04-10T19:55:04.416Z,4.10
2018-04-10T19:57:32.042Z,3.97
2018-04-10T19:59:59.649Z,4.07
2018-04-10T20:02:27.270Z,4.43
2018-04-10T20:04:54.896Z,4.20
2018-04-10T20:07:22.515Z,4.70
2018-04-10T20:09:50.114Z,4.30
2018-04-10T20:12:17.720Z,3.90
2018-04-10T20:14:53.147Z,4.00
2018-04-10T20:17:20.775Z,3.57
2018-04-10T20:19:48.349Z,4.00
2018-04-10T20:22:16.034Z,3.30
2018-04-10T20:24:44.439Z,3.20
2018-04-10T20:27:12.113Z,2.87
2018-04-10T20:29:39.711Z,3.20
2018-04-10T20:32:08.094Z,3.23
2018-04-10T20:34:35.716Z,3.00
2018-04-10T20:37:03.362Z,3.00
2018-04-10T20:39:30.959Z,3.17
2018-04-10T20:41:58.557Z,3.10
2018-04-10T20:44:26.951Z,3.20
2018-04-10T20:46:55.476Z,3.40
2018-04-10T20:49:23.106Z,3.10
2018-04-10T20:52:21.296Z,3.17
2018-04-10T20:54:49.412Z,3.20
2018-04-10T20:57:17.782Z,2.97
2018-04-10T20:59:45.388Z,3.30
2018-04-10T21:02:18.632Z,3.90
2018-04-10T21:07:54.174Z,3.37
2018-04-10T21:10:21.695Z,3.80
2018-04-10T21:12:49.251Z,4.17
2018-04-10T21:15:16.760Z,4.13
2018-04-10T21:17:44.264Z,4.70
2018-04-10T21:20:11.845Z,5.00
2018-04-10T21:22:39.394Z,4.10
2018-04-10T21:25:07.786Z,5.03
2018-04-10T21:27:36.153Z,6.83
2018-04-10T21:30:04.550Z,5.30
2018-04-10T21:32:32.146Z,6.20
2018-04-10T21:35:01.712Z,5.80
2018-04-10T21:37:30.058Z,5.73
2018-04-10T21:39:57.629Z,5.90
2018-04-10T21:42:31.184Z,5.90
2018-04-10T21:45:02.792Z,5.23
2018-04-10T21:47:30.385Z,5.87
2018-04-10T21:49:58.808Z,5.40
2018-04-10T21:52:32.560Z,4.80
2018-04-10T21:55:09.024Z,4.23
2018-04-10T21:57:37.262Z,5.70
2018-04-10T22:00:05.635Z,4.60
2018-04-10T22:02:34.017Z,4.67
2018-04-10T22:05:05.216Z,4.83
2018-04-10T22:07:32.818Z,4.87
2018-04-10T22:10:01.218Z,4.73
2018-04-10T22:12:28.795Z,4.63
2018-04-10T22:14:56.401Z,4.37
2018-04-10T22:17:24.032Z,4.77
2018-04-10T22:19:51.630Z,4.70
2018-04-10T22:22:20.004Z,4.33
2018-04-10T22:24:47.592Z,5.07
2018-04-10T22:27:15.237Z,4.73
2018-04-10T22:29:43.612Z,4.57
2018-04-10T22:32:11.210Z,4.30
2018-04-10T22:34:38.775Z,4.90
2018-04-10T22:37:06.361Z,4.97
2018-04-10T22:39:34.729Z,5.28
2018-04-10T22:42:02.342Z,4.73
2018-04-10T22:44:36.820Z,5.37
2018-04-10T22:47:07.116Z,6.43
2018-04-10T22:49:34.795Z,5.77
2018-04-10T22:52:02.444Z,4.97
2018-04-10T22:54:30.877Z,5.90
2018-04-10T22:56:58.485Z,6.00
2018-04-10T22:59:26.097Z,6.50
2018-04-10T23:01:53.711Z,6.50
2018-04-10T23:04:21.337Z,6.50
2018-04-10T23:06:48.932Z,6.60
2018-04-10T23:09:17.272Z,6.10
2018-04-10T23:11:44.908Z,7.10
2018-04-10T23:14:12.520Z,6.33
2018-04-10T23:16:40.136Z,7.20
2018-04-10T23:19:07.735Z,7.43
2018-04-10T23:21:35.334Z,6.63
2018-04-10T23:24:02.959Z,7.53
2018-04-10T23:26:30.551Z,7.57
2018-04-10T23:28:58.899Z,6.80
2018-04-10T23:31:26.518Z,7.03
2018-04-10T23:33:54.088Z,6.97
2018-04-10T23:36:21.709Z,7.03
2018-04-10T23:38:50.081Z,7.50
2018-04-10T23:41:17.806Z,7.40
2018-04-10T23:43:45.429Z,8.70
2018-04-10T23:46:12.993Z,7.20
2018-04-10T23:48:40.568Z,6.40
2018-04-10T23:51:08.185Z,6.43
2018-04-10T23:53:35.809Z,6.60
2018-04-10T23:56:03.422Z,7.17
2018-04-10T23:58:31.819Z,7.27
